Canyon Lake, California
Current Conditions -  °F | °C
As of 7:15 AM on Saturday 25 Oct 2014 (Local Time) from KF70 Reporting Station
Overcast Overcast  
Wind Chill: 59°   Ceiling: 8500
Heat Index: 59°   Visibility: 10mi
Dew Point: 37°   Wind: 0mph
Humidity: 45%   Direction: NA
Pressure: 30.04"   Gusts: NA
Location:  33.6906°N, 117.25°W
Report Text: KF70 251415Z AUTO 00000KT 10SM OVC085 15/03 A3004 RMK AO1
Loading
Personal Weather Stations






























Interactive Weather Map
Tropical Storm Tracking
New forecast layout! Learn more

10-Day Weather Forecast

Advertisements
Track Severe Weather on mobile